Terminal Aerodrome Forecast
Issued by NWS

Home | Current Version | Previous Version | Text Only | Print | Product List | Glossary On
Versions: 1 2 3 4 5 6 7 8 9 10 11 12 13 14 15 16 17 18 19 20 21 22 23 24 25 26 27 28 29 30 31 32 33 34
000
FTUS41 KBOX 221120
TAFBED
TAF
KBED 221120Z 2212/2312 01009KT 6SM -SHRA BR OVC005
     FM221800 02014G25KT 6SM -SHRA BR OVC007
     FM230000 02016G28KT 2SM +SHRA BR OVC008
     FM230500 03014KT 2SM -SHRA BR OVC008
     FM230700 03013KT 3SM +SHRA BR OVC008=

USA.gov is the U.S. government's official web portal to all federal, state and local government web resources and services.